createdAt,value
2023-01-09T00:01:54.305Z,4.56
2023-01-09T00:04:22.392Z,4.54
2023-01-09T00:06:54.211Z,4.55
2023-01-09T00:09:22.527Z,4.56
2023-01-09T00:11:51.146Z,4.54
2023-01-09T00:14:20.042Z,4.55
2023-01-09T00:16:48.172Z,4.54
2023-01-09T00:19:17.606Z,4.54
2023-01-09T00:21:45.696Z,4.53
2023-01-09T00:24:13.753Z,4.52
2023-01-09T00:26:41.815Z,4.54
2023-01-09T00:29:11.610Z,4.53
2023-01-09T00:31:39.697Z,4.54
2023-01-09T00:34:10.429Z,4.53
2023-01-09T00:36:39.884Z,4.52
2023-01-09T00:39:08.031Z,4.50
2023-01-09T00:41:38.354Z,4.50
2023-01-09T00:44:09.310Z,4.49
2023-01-09T00:46:40.689Z,4.50
2023-01-09T00:49:09.196Z,4.50
2023-01-09T00:51:37.731Z,4.51
2023-01-09T00:54:07.299Z,4.52
2023-01-09T00:56:35.789Z,4.53
2023-01-09T00:59:04.153Z,4.55
2023-01-09T01:01:32.542Z,4.54
2023-01-09T01:04:20.654Z,4.54
2023-01-09T01:07:06.007Z,4.54
2023-01-09T01:09:35.460Z,4.53
2023-01-09T01:12:07.030Z,4.51
2023-01-09T01:14:35.514Z,4.51
2023-01-09T01:17:03.728Z,4.49
2023-01-09T01:19:31.964Z,4.48
2023-01-09T01:22:00.039Z,4.46
2023-01-09T01:24:28.354Z,4.46
2023-01-09T01:26:57.846Z,4.44
2023-01-09T01:29:25.926Z,4.44
2023-01-09T01:31:54.426Z,4.42
2023-01-09T01:34:22.481Z,4.42
2023-01-09T01:36:50.539Z,4.41
2023-01-09T01:39:18.740Z,4.41
2023-01-09T01:41:46.819Z,4.41
2023-01-09T01:44:48.107Z,4.43
2023-01-09T01:47:18.638Z,4.47
2023-01-09T01:49:47.048Z,4.50
2023-01-09T01:52:15.890Z,4.55
2023-01-09T01:54:44.536Z,4.60
2023-01-09T01:57:13.279Z,4.67
2023-01-09T01:59:44.574Z,4.74
2023-01-09T02:02:13.124Z,4.81
2023-01-09T02:04:42.857Z,4.84
2023-01-09T02:07:11.294Z,4.89
2023-01-09T02:09:41.438Z,4.89
2023-01-09T02:12:18.065Z,4.93
2023-01-09T02:14:47.226Z,4.94
2023-01-09T02:17:21.882Z,4.97
2023-01-09T02:20:27.007Z,5.00
2023-01-09T02:23:06.377Z,5.06
2023-01-09T02:25:48.603Z,5.10
2023-01-09T02:28:51.328Z,5.16
2023-01-09T02:31:23.282Z,5.19
2023-01-09T02:33:56.054Z,5.22
2023-01-09T02:36:30.081Z,5.26
2023-01-09T02:39:09.956Z,5.28
2023-01-09T02:41:44.347Z,5.28
2023-01-09T02:44:21.345Z,5.30
2023-01-09T02:47:01.043Z,5.31
2023-01-09T02:49:29.504Z,5.35
2023-01-09T02:52:05.380Z,5.37
2023-01-09T02:54:39.829Z,5.39
2023-01-09T02:57:25.995Z,5.42
2023-01-09T03:00:04.535Z,5.45
2023-01-09T03:02:44.374Z,5.49
2023-01-09T03:05:16.378Z,5.51
2023-01-09T03:07:48.377Z,5.53
2023-01-09T03:10:20.261Z,5.56
2023-01-09T03:12:49.886Z,5.57
2023-01-09T03:15:19.588Z,5.60
2023-01-09T03:17:51.688Z,5.62
2023-01-09T03:20:22.722Z,5.65
2023-01-09T03:22:56.143Z,5.66
2023-01-09T03:25:24.728Z,5.66
2023-01-09T03:28:01.123Z,5.68
2023-01-09T03:30:30.655Z,5.68
2023-01-09T03:33:00.714Z,5.70
2023-01-09T03:35:28.921Z,5.71
2023-01-09T03:37:57.161Z,5.74
2023-01-09T03:40:25.220Z,5.75
2023-01-09T03:42:53.306Z,5.75
2023-01-09T03:45:21.402Z,5.77
2023-01-09T03:47:50.689Z,5.78
2023-01-09T03:50:21.844Z,5.79
2023-01-09T03:52:49.904Z,5.81
2023-01-09T03:55:18.092Z,5.84
2023-01-09T03:57:46.233Z,5.85
2023-01-09T04:00:15.179Z,5.86
2023-01-09T04:02:43.614Z,5.88
2023-01-09T04:05:11.759Z,5.93
2023-01-09T04:07:41.299Z,5.96
2023-01-09T04:10:10.799Z,5.99
2023-01-09T04:12:38.985Z,5.98
2023-01-09T04:15:08.162Z,5.98
2023-01-09T04:17:36.204Z,6.01
2023-01-09T04:20:05.003Z,6.01
2023-01-09T04:22:33.195Z,6.02
2023-01-09T04:25:02.628Z,6.01
2023-01-09T04:27:31.301Z,6.02
2023-01-09T04:29:59.381Z,6.01
2023-01-09T04:32:27.644Z,6.02
2023-01-09T04:34:55.807Z,6.02
2023-01-09T04:37:24.488Z,6.01
2023-01-09T04:39:54.835Z,6.01
2023-01-09T04:42:24.620Z,6.02
2023-01-09T04:44:54.054Z,6.03
2023-01-09T04:47:23.721Z,6.02
2023-01-09T04:49:52.028Z,6.03
2023-01-09T04:52:20.146Z,6.01
2023-01-09T04:54:48.206Z,6.00
2023-01-09T04:57:16.289Z,6.00
2023-01-09T04:59:45.830Z,5.98
2023-01-09T05:02:14.155Z,5.98
2023-01-09T05:04:43.072Z,5.97
2023-01-09T05:07:11.162Z,5.97
2023-01-09T05:09:39.244Z,5.96
2023-01-09T05:12:07.949Z,5.96
2023-01-09T05:14:36.026Z,5.94
2023-01-09T05:17:05.473Z,5.94
2023-01-09T05:19:34.606Z,5.94
2023-01-09T05:22:02.915Z,5.94
2023-01-09T05:24:31.224Z,5.93
2023-01-09T05:26:59.285Z,5.95
2023-01-09T05:29:27.370Z,5.97
2023-01-09T05:31:55.509Z,6.01
2023-01-09T05:34:25.176Z,6.03
2023-01-09T05:36:53.311Z,6.05
2023-01-09T05:39:21.493Z,6.06
2023-01-09T05:41:49.559Z,6.03
2023-01-09T05:44:17.856Z,6.03
2023-01-09T05:46:45.901Z,6.03
2023-01-09T05:49:14.010Z,6.06
2023-01-09T05:51:43.509Z,6.07
2023-01-09T05:54:11.601Z,6.08
2023-01-09T05:56:39.672Z,6.10
2023-01-09T05:59:07.734Z,6.11
2023-01-09T06:01:35.894Z,6.10
2023-01-09T06:04:03.976Z,6.10
2023-01-09T06:06:32.446Z,6.13
2023-01-09T06:09:03.448Z,6.11
2023-01-09T06:11:31.526Z,6.11
2023-01-09T06:13:59.593Z,6.12
2023-01-09T06:16:27.641Z,6.12
2023-01-09T06:18:55.739Z,6.12
2023-01-09T06:21:23.898Z,6.12
2023-01-09T06:23:51.973Z,6.11
2023-01-09T06:26:21.396Z,6.11
2023-01-09T06:28:49.464Z,6.12
2023-01-09T06:31:17.533Z,6.12
2023-01-09T06:33:45.610Z,6.12
2023-01-09T06:36:13.678Z,6.11
2023-01-09T06:38:41.795Z,6.13
2023-01-09T06:41:09.974Z,6.14
2023-01-09T06:43:39.429Z,6.16
2023-01-09T06:46:07.647Z,6.16
2023-01-09T06:48:35.855Z,6.18
2023-01-09T06:51:04.137Z,6.18
2023-01-09T06:53:32.396Z,6.19
2023-01-09T06:56:02.243Z,6.19
2023-01-09T06:58:30.340Z,6.16
2023-01-09T07:01:01.017Z,6.13
2023-01-09T07:03:29.190Z,6.10
2023-01-09T07:05:57.451Z,6.10
2023-01-09T07:08:25.541Z,6.06
2023-01-09T07:10:53.591Z,6.04
2023-01-09T07:13:21.684Z,6.02
2023-01-09T07:15:50.377Z,6.02
2023-01-09T07:18:19.849Z,6.00
2023-01-09T07:20:48.466Z,6.00
2023-01-09T07:23:18.738Z,6.00
2023-01-09T07:25:47.580Z,5.99
2023-01-09T07:28:15.619Z,5.97
2023-01-09T07:30:43.791Z,5.97
2023-01-09T07:33:11.855Z,5.97
2023-01-09T07:35:41.264Z,5.97
2023-01-09T07:38:09.331Z,5.95
2023-01-09T07:40:37.382Z,5.94
2023-01-09T07:43:05.531Z,5.94
2023-01-09T07:45:33.608Z,5.93
2023-01-09T07:48:01.700Z,5.93
2023-01-09T07:50:29.977Z,5.93
2023-01-09T07:52:59.671Z,5.93
2023-01-09T07:55:27.815Z,5.89
2023-01-09T07:57:55.861Z,5.88
2023-01-09T08:00:23.969Z,5.88
2023-01-09T08:02:55.194Z,5.86
2023-01-09T08:05:23.475Z,5.86
2023-01-09T08:07:51.737Z,5.85
2023-01-09T08:10:21.272Z,5.86
2023-01-09T08:12:50.478Z,5.86
2023-01-09T08:15:19.074Z,5.86
2023-01-09T08:17:47.885Z,5.85
2023-01-09T08:20:18.184Z,5.85
2023-01-09T08:22:50.636Z,5.84
2023-01-09T08:25:19.308Z,5.82
2023-01-09T08:27:48.792Z,5.82
2023-01-09T08:30:18.092Z,5.79
2023-01-09T08:32:51.059Z,5.79
2023-01-09T08:35:19.334Z,5.79
2023-01-09T08:37:47.642Z,5.76
2023-01-09T08:40:16.946Z,5.76
2023-01-09T08:43:02.925Z,5.75
2023-01-09T08:45:50.562Z,5.75
2023-01-09T08:48:18.620Z,5.75
2023-01-09T08:50:46.692Z,5.78
2023-01-09T08:53:15.450Z,5.78
2023-01-09T08:55:43.614Z,5.79
2023-01-09T08:58:11.773Z,5.80
2023-01-09T09:00:41.297Z,5.79
2023-01-09T09:03:10.812Z,5.83
2023-01-09T09:05:39.037Z,5.85
2023-01-09T09:08:07.297Z,5.86
2023-01-09T09:10:35.522Z,5.91
2023-01-09T09:13:03.769Z,5.94
2023-01-09T09:15:31.863Z,5.96
2023-01-09T09:18:02.759Z,5.98
2023-01-09T09:20:32.821Z,6.01
2023-01-09T09:23:01.035Z,6.04
2023-01-09T09:25:29.678Z,6.05
2023-01-09T09:27:57.847Z,6.05
2023-01-09T09:30:25.937Z,6.06
2023-01-09T09:32:54.062Z,6.07
2023-01-09T09:35:23.925Z,6.12
2023-01-09T09:37:56.130Z,6.19
2023-01-09T09:40:36.305Z,6.24
2023-01-09T09:43:57.322Z,6.29
2023-01-09T09:46:32.373Z,6.36
2023-01-09T09:49:04.706Z,6.40
2023-01-09T09:51:47.641Z,6.48
2023-01-09T09:54:18.675Z,6.58
2023-01-09T09:56:51.310Z,6.67
2023-01-09T09:59:21.800Z,6.79
2023-01-09T10:01:54.727Z,6.92
2023-01-09T10:04:25.036Z,7.05
2023-01-09T10:06:59.299Z,7.17
2023-01-09T10:09:39.164Z,7.30
2023-01-09T10:12:16.650Z,7.41
2023-01-09T10:14:44.782Z,7.50
2023-01-09T10:17:30.197Z,7.55
2023-01-09T10:20:42.586Z,7.61
2023-01-09T10:23:29.331Z,7.71
2023-01-09T10:26:02.723Z,7.75
2023-01-09T10:28:57.322Z,7.81
2023-01-09T10:31:30.305Z,7.88
2023-01-09T10:34:06.782Z,7.92
2023-01-09T10:36:49.650Z,7.93
2023-01-09T10:39:22.177Z,7.83
2023-01-09T10:41:56.719Z,7.70
2023-01-09T10:44:29.368Z,7.59
2023-01-09T10:46:59.283Z,7.47
2023-01-09T10:49:27.887Z,7.37
2023-01-09T10:52:13.649Z,7.31
2023-01-09T10:54:50.955Z,7.33
2023-01-09T10:57:28.859Z,7.33
2023-01-09T10:59:57.240Z,7.31
2023-01-09T11:02:28.827Z,7.29
2023-01-09T11:04:56.913Z,7.30
2023-01-09T11:07:27.339Z,7.24
2023-01-09T11:10:02.264Z,7.18
2023-01-09T11:12:31.669Z,7.14
2023-01-09T11:15:28.775Z,7.14
2023-01-09T11:18:17.096Z,7.16
2023-01-09T11:20:45.222Z,7.15
2023-01-09T11:23:31.766Z,7.17
2023-01-09T11:26:02.638Z,7.23
2023-01-09T11:28:30.778Z,7.26
2023-01-09T11:31:01.003Z,7.25
2023-01-09T11:33:31.445Z,7.22
2023-01-09T11:36:06.362Z,7.18
2023-01-09T11:38:46.864Z,7.13
2023-01-09T11:41:20.271Z,7.08
2023-01-09T11:43:51.753Z,7.02
2023-01-09T11:46:34.829Z,6.94
2023-01-09T11:49:04.154Z,6.85
2023-01-09T11:51:34.518Z,6.75
2023-01-09T11:54:18.883Z,6.69
2023-01-09T11:56:49.061Z,6.64
2023-01-09T11:59:19.350Z,6.60
2023-01-09T12:02:22.785Z,6.54
2023-01-09T12:04:55.217Z,6.44
2023-01-09T12:07:52.833Z,6.38
2023-01-09T12:10:39.058Z,6.30
2023-01-09T12:13:17.877Z,6.25
2023-01-09T12:15:52.087Z,6.21
2023-01-09T12:18:34.474Z,6.18
2023-01-09T12:21:15.320Z,6.16
2023-01-09T12:24:16.314Z,6.17
2023-01-09T12:26:49.238Z,6.17
2023-01-09T12:29:30.899Z,6.18
2023-01-09T12:32:21.050Z,6.19
2023-01-09T12:35:03.123Z,6.19
2023-01-09T12:37:41.591Z,6.17
2023-01-09T12:40:22.772Z,6.16
2023-01-09T12:42:54.613Z,6.18
2023-01-09T12:45:37.673Z,6.20
2023-01-09T12:48:17.235Z,6.22
2023-01-09T12:51:02.254Z,6.23
2023-01-09T12:53:34.596Z,6.24
2023-01-09T12:56:07.355Z,6.27
2023-01-09T12:58:42.384Z,6.31
2023-01-09T13:01:16.163Z,6.32
2023-01-09T13:03:49.497Z,6.35
2023-01-09T13:06:19.776Z,6.35
2023-01-09T13:08:52.041Z,6.36
2023-01-09T13:11:23.477Z,6.36
2023-01-09T13:13:55.838Z,6.36
2023-01-09T13:16:28.416Z,6.35
2023-01-09T13:19:00.165Z,6.36
2023-01-09T13:21:28.548Z,6.36
2023-01-09T13:23:59.632Z,6.35
2023-01-09T13:26:31.668Z,6.38
2023-01-09T13:29:04.278Z,6.39
2023-01-09T13:31:47.438Z,6.43
2023-01-09T13:34:21.736Z,6.46
2023-01-09T13:36:52.234Z,6.47
2023-01-09T13:39:25.420Z,6.48
2023-01-09T13:42:15.550Z,6.51
2023-01-09T13:44:44.200Z,6.54
2023-01-09T13:47:22.156Z,6.57
2023-01-09T13:50:26.594Z,6.58
2023-01-09T13:52:54.783Z,6.60
2023-01-09T13:55:36.065Z,6.61
2023-01-09T13:58:25.016Z,6.62
2023-01-09T14:00:55.869Z,6.63
2023-01-09T14:03:28.341Z,6.63
2023-01-09T14:06:12.540Z,6.63
2023-01-09T14:08:42.803Z,6.62
2023-01-09T14:11:18.487Z,6.62
2023-01-09T14:13:47.310Z,6.62
2023-01-09T14:16:20.519Z,6.60
2023-01-09T14:18:52.323Z,6.61
2023-01-09T14:21:20.625Z,6.59
2023-01-09T14:23:54.976Z,6.59
2023-01-09T14:26:26.141Z,6.59
2023-01-09T14:29:14.312Z,6.59
2023-01-09T14:31:43.873Z,6.60
2023-01-09T14:34:36.499Z,6.61
2023-01-09T14:37:05.327Z,6.61
2023-01-09T14:39:34.001Z,6.59
2023-01-09T14:42:07.967Z,6.59
2023-01-09T14:44:46.490Z,6.59
2023-01-09T14:47:20.813Z,6.59
2023-01-09T14:49:55.187Z,6.60
2023-01-09T14:52:25.823Z,6.59
2023-01-09T14:54:56.367Z,6.59
2023-01-09T14:57:25.786Z,6.59
2023-01-09T15:00:00.761Z,6.60
2023-01-09T15:02:32.667Z,6.59
2023-01-09T15:05:05.908Z,6.59
2023-01-09T15:07:40.488Z,6.59
2023-01-09T15:10:16.256Z,6.59
2023-01-09T15:12:46.358Z,6.60
2023-01-09T15:15:15.807Z,6.59
2023-01-09T15:17:47.174Z,6.59
2023-01-09T15:20:19.602Z,6.61
2023-01-09T15:22:52.815Z,6.60
2023-01-09T15:25:33.909Z,6.61
2023-01-09T15:28:13.871Z,6.62
2023-01-09T15:30:43.382Z,6.63
2023-01-09T15:33:16.363Z,6.63
2023-01-09T15:35:45.897Z,6.63
2023-01-09T15:38:15.647Z,6.63
2023-01-09T15:40:43.796Z,6.61
2023-01-09T15:43:14.659Z,6.59
2023-01-09T15:45:44.215Z,6.56
2023-01-09T15:48:23.097Z,6.53
2023-01-09T15:50:54.197Z,6.46
2023-01-09T15:53:24.199Z,6.40
2023-01-09T15:56:17.307Z,6.33
2023-01-09T15:58:47.213Z,6.26
2023-01-09T16:01:26.915Z,6.17
2023-01-09T16:03:58.634Z,6.11
2023-01-09T16:06:29.596Z,6.05
2023-01-09T16:08:59.514Z,6.00
2023-01-09T16:11:30.119Z,5.94
2023-01-09T16:14:00.199Z,5.90
2023-01-09T16:16:31.077Z,5.88
2023-01-09T16:19:00.901Z,5.87
2023-01-09T16:21:34.810Z,5.87
2023-01-09T16:24:06.232Z,5.87
2023-01-09T16:26:34.821Z,5.87
2023-01-09T16:29:27.921Z,5.89
2023-01-09T16:32:02.776Z,5.92
2023-01-09T16:34:32.734Z,5.90
2023-01-09T16:37:02.813Z,5.89
2023-01-09T16:39:31.050Z,5.91
2023-01-09T16:42:16.592Z,5.92
2023-01-09T16:44:44.667Z,5.95
2023-01-09T16:47:13.468Z,5.95
2023-01-09T16:49:42.894Z,5.96
2023-01-09T16:52:17.349Z,5.97
2023-01-09T16:54:46.898Z,5.99
2023-01-09T16:57:18.429Z,6.01
2023-01-09T16:59:46.814Z,6.02
2023-01-09T17:02:18.508Z,6.01
2023-01-09T17:04:48.103Z,6.00
2023-01-09T17:07:17.488Z,5.97
2023-01-09T17:09:45.758Z,5.95
2023-01-09T17:12:17.651Z,5.93
2023-01-09T17:14:45.702Z,5.91
2023-01-09T17:17:14.168Z,5.88
2023-01-09T17:19:42.661Z,5.88
2023-01-09T17:22:12.134Z,5.86
2023-01-09T17:24:57.778Z,5.85
2023-01-09T17:27:47.075Z,5.86
2023-01-09T17:30:19.579Z,5.86
2023-01-09T17:32:48.297Z,5.86
2023-01-09T17:35:17.180Z,5.87
2023-01-09T17:37:46.630Z,5.88
2023-01-09T17:40:19.439Z,5.89
2023-01-09T17:42:47.556Z,5.92
2023-01-09T17:45:15.913Z,5.91
2023-01-09T17:47:43.987Z,5.92
2023-01-09T17:50:17.692Z,5.94
2023-01-09T17:52:47.132Z,5.94
2023-01-09T17:55:15.257Z,5.95
2023-01-09T17:57:43.878Z,5.96
2023-01-09T18:00:18.608Z,5.96
2023-01-09T18:02:46.740Z,5.95
2023-01-09T18:05:15.002Z,5.93
2023-01-09T18:07:43.111Z,5.91
2023-01-09T18:10:14.946Z,5.90
2023-01-09T18:12:43.246Z,5.92
2023-01-09T18:15:11.826Z,5.93
2023-01-09T18:17:40.325Z,5.93
2023-01-09T18:20:09.575Z,5.94
2023-01-09T18:22:38.059Z,5.94
2023-01-09T18:25:08.014Z,5.96
2023-01-09T18:27:38.548Z,5.96
2023-01-09T18:30:08.386Z,5.96
2023-01-09T18:32:36.483Z,5.96
2023-01-09T18:35:04.913Z,5.94
2023-01-09T18:37:33.036Z,5.94
2023-01-09T18:40:01.138Z,5.94
2023-01-09T18:42:29.238Z,5.95
2023-01-09T18:44:58.670Z,5.95
2023-01-09T18:47:26.786Z,5.95
2023-01-09T18:49:54.891Z,5.95
2023-01-09T18:52:23.456Z,5.95
2023-01-09T18:54:51.582Z,5.99
2023-01-09T18:57:19.697Z,5.99
2023-01-09T18:59:47.828Z,5.97
2023-01-09T19:02:21.040Z,5.99
2023-01-09T19:04:49.476Z,6.01
2023-01-09T19:07:17.816Z,6.03
2023-01-09T19:09:46.332Z,6.06
2023-01-09T19:12:14.404Z,6.08
2023-01-09T19:14:42.456Z,6.11
2023-01-09T19:17:10.551Z,6.14
2023-01-09T19:19:40.016Z,6.16
2023-01-09T19:22:08.112Z,6.16
2023-01-09T19:24:37.196Z,6.17
2023-01-09T19:27:05.334Z,6.19
2023-01-09T19:29:35.750Z,6.20
2023-01-09T19:32:08.360Z,6.20
2023-01-09T19:34:36.515Z,6.22
2023-01-09T19:37:08.912Z,6.22
2023-01-09T19:39:37.652Z,6.22
2023-01-09T19:42:05.827Z,6.22
2023-01-09T19:44:33.882Z,6.22
2023-01-09T19:47:01.969Z,6.22
2023-01-09T19:49:30.190Z,6.19
2023-01-09T19:52:00.612Z,6.19
2023-01-09T19:54:30.407Z,6.18
2023-01-09T19:56:58.518Z,6.20
2023-01-09T19:59:26.678Z,6.22
2023-01-09T20:01:55.278Z,6.22
2023-01-09T20:04:23.449Z,6.23
2023-01-09T20:06:52.640Z,6.22
2023-01-09T20:09:22.527Z,6.23
2023-01-09T20:11:52.234Z,6.24
2023-01-09T20:14:20.920Z,6.24
2023-01-09T20:16:50.028Z,6.26
2023-01-09T20:19:18.164Z,6.26
2023-01-09T20:21:46.269Z,6.27
2023-01-09T20:24:16.669Z,6.26
2023-01-09T20:26:46.154Z,6.26
2023-01-09T20:29:16.785Z,6.25
2023-01-09T20:31:45.340Z,6.25
2023-01-09T20:34:14.285Z,6.24
2023-01-09T20:36:42.491Z,6.23
2023-01-09T20:39:12.334Z,6.22
2023-01-09T20:41:40.563Z,6.22
2023-01-09T20:44:10.896Z,6.21
2023-01-09T20:46:41.841Z,6.19
2023-01-09T20:49:12.600Z,6.19
2023-01-09T20:51:43.471Z,6.18
2023-01-09T20:54:11.563Z,6.17
2023-01-09T20:56:39.723Z,6.17
2023-01-09T20:59:12.446Z,6.18
2023-01-09T21:01:41.939Z,6.19
2023-01-09T21:04:10.233Z,6.19
2023-01-09T21:06:38.908Z,6.21
2023-01-09T21:09:07.210Z,6.21
2023-01-09T21:11:35.318Z,6.23
2023-01-09T21:14:03.450Z,6.23
2023-01-09T21:16:31.674Z,6.24
2023-01-09T21:19:01.201Z,6.25
2023-01-09T21:21:29.424Z,6.24
2023-01-09T21:23:59.179Z,6.26
2023-01-09T21:26:30.432Z,6.26
2023-01-09T21:29:00.608Z,6.25
2023-01-09T21:31:34.285Z,6.26
2023-01-09T21:34:05.618Z,6.28
2023-01-09T21:36:35.323Z,6.29
2023-01-09T21:39:07.452Z,6.29
2023-01-09T21:41:53.843Z,6.29
2023-01-09T21:44:39.386Z,6.31
2023-01-09T21:47:07.470Z,6.32
2023-01-09T21:49:40.741Z,6.35
2023-01-09T21:52:09.309Z,6.34
2023-01-09T21:54:37.378Z,6.34
2023-01-09T21:57:06.025Z,6.35
2023-01-09T21:59:34.102Z,6.36
2023-01-09T22:02:02.233Z,6.35
2023-01-09T22:04:30.649Z,6.35
2023-01-09T22:07:00.311Z,6.36
2023-01-09T22:09:28.574Z,6.35
2023-01-09T22:11:57.510Z,6.35
2023-01-09T22:14:25.609Z,6.34
2023-01-09T22:16:53.695Z,6.33
2023-01-09T22:19:21.992Z,6.32
2023-01-09T22:21:50.557Z,6.32
2023-01-09T22:24:21.679Z,6.32
2023-01-09T22:26:50.038Z,6.32
2023-01-09T22:29:18.113Z,6.30
2023-01-09T22:31:46.250Z,6.27
2023-01-09T22:34:15.939Z,6.25
2023-01-09T22:36:44.759Z,6.23
2023-01-09T22:39:14.221Z,6.21
2023-01-09T22:41:50.955Z,6.17
2023-01-09T22:44:19.304Z,6.14
2023-01-09T22:46:47.390Z,6.11
2023-01-09T22:49:15.442Z,6.09
2023-01-09T22:51:43.689Z,6.08
2023-01-09T22:54:11.769Z,6.07
2023-01-09T22:56:39.865Z,6.07
2023-01-09T22:59:09.364Z,6.07
2023-01-09T23:01:37.475Z,6.08
2023-01-09T23:04:05.609Z,6.10
2023-01-09T23:06:33.681Z,6.12
2023-01-09T23:09:01.741Z,6.13
2023-01-09T23:11:49.571Z,6.14
2023-01-09T23:14:19.110Z,6.16
2023-01-09T23:16:47.247Z,6.16
2023-01-09T23:19:15.665Z,6.16
2023-01-09T23:21:44.687Z,6.16
2023-01-09T23:24:13.540Z,6.18
2023-01-09T23:26:42.623Z,6.16
2023-01-09T23:29:11.570Z,6.16
2023-01-09T23:31:41.165Z,6.14
2023-01-09T23:34:09.371Z,6.12
2023-01-09T23:36:37.517Z,6.09
2023-01-09T23:39:08.952Z,6.08
2023-01-09T23:41:55.052Z,6.06
2023-01-09T23:44:23.217Z,6.05
2023-01-09T23:46:52.734Z,6.03
2023-01-09T23:49:20.944Z,6.03
2023-01-09T23:51:49.304Z,6.03
2023-01-09T23:54:17.557Z,6.03
2023-01-09T23:56:45.643Z,6.03
2023-01-09T23:59:14.143Z,6.02
